createdAt,value
2023-02-15T00:00:12.663Z,4.50
2023-02-15T00:03:00.488Z,4.46
2023-02-15T00:05:30.271Z,4.40
2023-02-15T00:07:57.997Z,4.40
2023-02-15T00:10:25.732Z,4.40
2023-02-15T00:12:53.498Z,4.40
2023-02-15T00:15:21.294Z,4.40
2023-02-15T00:17:49.036Z,4.38
2023-02-15T00:20:17.035Z,4.34
2023-02-15T00:22:44.813Z,4.40
2023-02-15T00:25:12.487Z,4.40
2023-02-15T00:27:40.144Z,4.40
2023-02-15T00:30:09.137Z,4.40
2023-02-15T00:32:36.939Z,4.40
2023-02-15T00:35:05.109Z,4.40
2023-02-15T00:37:32.872Z,4.32
2023-02-15T00:40:00.479Z,4.30
2023-02-15T00:42:28.305Z,4.30
2023-02-15T00:44:55.999Z,4.30
2023-02-15T00:47:25.474Z,4.22
2023-02-15T00:49:53.315Z,4.20
2023-02-15T00:52:20.966Z,4.20
2023-02-15T00:54:48.614Z,4.20
2023-02-15T00:57:16.299Z,4.16
2023-02-15T00:59:43.994Z,4.10
2023-02-15T01:02:11.717Z,4.10
2023-02-15T01:04:39.476Z,4.08
2023-02-15T01:07:07.358Z,4.00
2023-02-15T01:09:35.154Z,4.00
2023-02-15T01:12:03.000Z,4.00
2023-02-15T01:14:30.757Z,4.00
2023-02-15T01:16:58.359Z,4.00
2023-02-15T01:19:26.099Z,4.00
2023-02-15T01:21:53.797Z,4.00
2023-02-15T01:24:21.757Z,4.00
2023-02-15T01:26:49.848Z,4.00
2023-02-15T01:29:17.530Z,4.00
2023-02-15T01:31:45.334Z,3.90
2023-02-15T01:34:13.170Z,3.90
2023-02-15T01:36:41.044Z,3.90
2023-02-15T01:39:09.032Z,3.90
2023-02-15T01:41:37.394Z,3.90
2023-02-15T01:44:43.987Z,3.86
2023-02-15T01:47:21.776Z,3.80
2023-02-15T01:50:01.341Z,3.80
2023-02-15T01:52:30.642Z,3.74
2023-02-15T01:54:58.728Z,3.70
2023-02-15T01:57:29.626Z,3.70
2023-02-15T02:00:03.491Z,3.70
2023-02-15T02:02:31.500Z,3.70
2023-02-15T02:05:07.497Z,3.74
2023-02-15T02:07:44.676Z,3.70
2023-02-15T02:10:19.628Z,3.70
2023-02-15T02:12:51.232Z,3.70
2023-02-15T02:15:24.204Z,3.70
2023-02-15T02:18:15.672Z,3.70
2023-02-15T02:21:09.117Z,3.70
2023-02-15T02:24:10.984Z,3.70
2023-02-15T02:27:17.212Z,3.76
2023-02-15T02:30:10.084Z,3.70
2023-02-15T02:33:19.384Z,3.70
2023-02-15T02:36:17.743Z,3.60
2023-02-15T02:39:00.093Z,3.60
2023-02-15T02:41:44.526Z,3.60
2023-02-15T02:44:22.864Z,3.52
2023-02-15T02:47:10.005Z,3.50
2023-02-15T02:49:41.288Z,3.50
2023-02-15T02:52:40.797Z,3.50
2023-02-15T02:55:50.069Z,3.50
2023-02-15T02:58:30.769Z,3.52
2023-02-15T03:01:06.731Z,3.54
2023-02-15T03:03:41.768Z,3.60
2023-02-15T03:06:39.900Z,3.50
2023-02-15T03:09:35.470Z,3.50
2023-02-15T03:12:06.408Z,3.50
2023-02-15T03:14:34.812Z,3.50
2023-02-15T03:17:06.035Z,3.50
2023-02-15T03:19:37.644Z,3.50
2023-02-15T03:22:15.942Z,3.48
2023-02-15T03:25:21.780Z,3.46
2023-02-15T03:28:00.981Z,3.40
2023-02-15T03:30:31.983Z,3.40
2023-02-15T03:33:01.733Z,3.40
2023-02-15T03:35:44.964Z,3.40
2023-02-15T03:38:19.749Z,3.40
2023-02-15T03:41:07.233Z,3.46
2023-02-15T03:44:07.371Z,3.50
2023-02-15T03:46:46.440Z,3.40
2023-02-15T03:49:32.614Z,3.40
2023-02-15T03:52:04.540Z,3.30
2023-02-15T03:54:46.761Z,3.30
2023-02-15T03:57:42.316Z,3.30
2023-02-15T04:00:41.651Z,3.40
2023-02-15T04:03:27.493Z,3.38
2023-02-15T04:05:55.147Z,3.30
2023-02-15T04:08:42.884Z,3.30
2023-02-15T04:11:10.621Z,3.30
2023-02-15T04:13:38.437Z,3.30
2023-02-15T04:16:07.595Z,3.30
2023-02-15T04:18:58.552Z,3.30
2023-02-15T04:21:48.713Z,3.30
2023-02-15T04:24:35.958Z,3.30
2023-02-15T04:27:05.669Z,3.30
2023-02-15T04:29:33.389Z,3.30
2023-02-15T04:32:03.192Z,3.22
2023-02-15T04:34:31.155Z,3.30
2023-02-15T04:36:58.831Z,3.30
2023-02-15T04:39:26.658Z,3.30
2023-02-15T04:41:54.374Z,3.30
2023-02-15T04:44:22.145Z,3.30
2023-02-15T04:46:49.964Z,3.30
2023-02-15T04:49:17.684Z,3.22
2023-02-15T04:51:45.482Z,3.20
2023-02-15T04:54:13.269Z,3.20
2023-02-15T04:56:41.003Z,3.20
2023-02-15T04:59:11.965Z,3.20
2023-02-15T05:01:39.841Z,3.20
2023-02-15T05:04:07.695Z,3.20
2023-02-15T05:06:36.077Z,3.20
2023-02-15T05:09:04.147Z,3.10
2023-02-15T05:11:31.926Z,3.10
2023-02-15T05:13:59.705Z,3.10
2023-02-15T05:16:28.959Z,3.10
2023-02-15T05:18:56.870Z,3.10
2023-02-15T05:21:25.064Z,3.10
2023-02-15T05:23:52.890Z,3.10
2023-02-15T05:26:43.270Z,3.20
2023-02-15T05:29:12.264Z,3.20
2023-02-15T05:31:40.241Z,3.20
2023-02-15T05:34:08.122Z,3.20
2023-02-15T05:36:35.868Z,3.20
2023-02-15T05:39:05.093Z,3.10
2023-02-15T05:41:32.789Z,3.10
2023-02-15T05:44:00.519Z,3.08
2023-02-15T05:46:28.343Z,3.02
2023-02-15T05:48:56.078Z,3.00
2023-02-15T05:51:23.776Z,3.00
2023-02-15T05:53:51.448Z,3.00
2023-02-15T05:56:19.073Z,2.98
2023-02-15T05:58:46.822Z,2.92
2023-02-15T06:01:22.100Z,2.90
2023-02-15T06:03:50.130Z,2.90
2023-02-15T06:06:17.880Z,2.90
2023-02-15T06:08:45.779Z,2.94
2023-02-15T06:11:13.514Z,3.00
2023-02-15T06:13:41.188Z,3.00
2023-02-15T06:16:08.939Z,3.00
2023-02-15T06:18:36.776Z,2.98
2023-02-15T06:21:04.594Z,2.90
2023-02-15T06:23:32.306Z,2.98
2023-02-15T06:26:00.086Z,3.00
2023-02-15T06:28:28.049Z,2.98
2023-02-15T06:30:56.009Z,2.90
2023-02-15T06:33:24.477Z,2.90
2023-02-15T06:35:52.200Z,2.86
2023-02-15T06:38:19.976Z,2.80
2023-02-15T06:40:47.898Z,2.80
2023-02-15T06:43:15.752Z,2.80
2023-02-15T06:45:43.833Z,2.80
2023-02-15T06:48:12.190Z,2.80
2023-02-15T06:50:40.671Z,2.90
2023-02-15T06:53:08.488Z,2.90
2023-02-15T06:55:36.239Z,2.90
2023-02-15T06:58:03.929Z,2.90
2023-02-15T07:00:31.788Z,2.88
2023-02-15T07:03:00.214Z,2.80
2023-02-15T07:05:32.410Z,2.80
2023-02-15T07:08:01.477Z,2.80
2023-02-15T07:10:29.931Z,2.80
2023-02-15T07:12:57.808Z,2.80
2023-02-15T07:15:25.700Z,2.80
2023-02-15T07:17:53.364Z,2.80
2023-02-15T07:20:23.468Z,2.80
2023-02-15T07:22:51.890Z,2.70
2023-02-15T07:25:19.693Z,2.70
2023-02-15T07:27:47.792Z,2.70
2023-02-15T07:30:17.959Z,2.70
2023-02-15T07:33:05.636Z,2.62
2023-02-15T07:35:34.942Z,2.70
2023-02-15T07:38:02.699Z,2.70
2023-02-15T07:40:30.401Z,2.70
2023-02-15T07:43:00.220Z,2.70
2023-02-15T07:45:28.409Z,2.70
2023-02-15T07:47:56.254Z,2.70
2023-02-15T07:50:24.396Z,2.70
2023-02-15T07:52:52.093Z,2.70
2023-02-15T07:55:20.568Z,2.60
2023-02-15T07:57:51.440Z,2.60
2023-02-15T08:00:25.718Z,2.50
2023-02-15T08:03:28.564Z,2.52
2023-02-15T08:05:59.957Z,2.50
2023-02-15T08:08:31.619Z,2.56
2023-02-15T08:11:33.852Z,2.60
2023-02-15T08:14:13.914Z,2.56
2023-02-15T08:16:51.499Z,2.50
2023-02-15T08:19:29.707Z,2.50
2023-02-15T08:22:05.156Z,2.50
2023-02-15T08:24:37.945Z,2.56
2023-02-15T08:27:09.713Z,2.60
2023-02-15T08:29:40.125Z,2.60
2023-02-15T08:32:11.607Z,2.60
2023-02-15T08:34:42.739Z,2.60
2023-02-15T08:37:10.583Z,2.60
2023-02-15T08:39:38.288Z,2.62
2023-02-15T08:42:06.131Z,2.68
2023-02-15T08:44:33.825Z,2.70
2023-02-15T08:47:04.849Z,2.80
2023-02-15T08:49:33.332Z,2.80
2023-02-15T08:52:01.143Z,2.90
2023-02-15T08:54:28.846Z,2.90
2023-02-15T08:56:56.542Z,2.90
2023-02-15T08:59:25.187Z,2.90
2023-02-15T09:01:53.526Z,2.90
2023-02-15T09:04:22.729Z,3.00
2023-02-15T09:06:51.732Z,3.00
2023-02-15T09:09:21.172Z,3.00
2023-02-15T09:11:56.807Z,3.00
2023-02-15T09:14:28.172Z,3.02
2023-02-15T09:16:56.437Z,3.08
2023-02-15T09:19:25.565Z,3.10
2023-02-15T09:21:53.489Z,3.10
2023-02-15T09:24:21.200Z,3.20
2023-02-15T09:26:50.114Z,3.30
2023-02-15T09:29:20.063Z,3.40
2023-02-15T09:31:51.604Z,3.40
2023-02-15T09:34:23.303Z,3.50
2023-02-15T09:36:52.104Z,3.58
2023-02-15T09:39:26.199Z,3.60
2023-02-15T09:41:54.713Z,3.70
2023-02-15T09:44:46.939Z,3.80
2023-02-15T09:47:48.028Z,3.90
2023-02-15T09:50:37.026Z,4.00
2023-02-15T09:53:38.040Z,4.10
2023-02-15T09:56:40.170Z,4.20
2023-02-15T09:59:49.512Z,4.20
2023-02-15T10:03:06.043Z,4.24
2023-02-15T10:06:18.087Z,4.30
2023-02-15T10:09:32.654Z,4.48
2023-02-15T10:12:29.695Z,4.52
2023-02-15T10:15:58.320Z,4.60
2023-02-15T10:18:50.531Z,4.70
2023-02-15T10:21:56.108Z,4.80
2023-02-15T10:24:58.067Z,4.90
2023-02-15T10:27:33.018Z,4.90
2023-02-15T10:30:14.412Z,5.00
2023-02-15T10:33:02.568Z,5.10
2023-02-15T10:36:17.325Z,5.20
2023-02-15T10:39:21.044Z,5.30
2023-02-15T10:42:12.180Z,5.40
2023-02-15T10:44:49.111Z,5.48
2023-02-15T10:47:37.809Z,5.58
2023-02-15T10:50:26.283Z,5.68
2023-02-15T10:53:18.032Z,5.78
2023-02-15T10:56:28.021Z,5.88
2023-02-15T10:59:27.793Z,6.00
2023-02-15T11:02:21.001Z,6.06
2023-02-15T11:05:25.836Z,6.10
2023-02-15T11:08:00.553Z,6.20
2023-02-15T11:10:40.333Z,6.30
2023-02-15T11:13:17.722Z,6.40
2023-02-15T11:15:53.552Z,6.50
2023-02-15T11:18:36.993Z,6.60
2023-02-15T11:21:45.573Z,6.60
2023-02-15T11:24:20.937Z,6.70
2023-02-15T11:26:58.045Z,6.80
2023-02-15T11:29:47.603Z,6.80
2023-02-15T11:32:34.249Z,6.80
2023-02-15T11:35:12.459Z,6.80
2023-02-15T11:37:42.978Z,6.90
2023-02-15T11:40:29.684Z,6.90
2023-02-15T11:43:05.454Z,6.90
2023-02-15T11:45:36.592Z,7.00
2023-02-15T11:48:12.990Z,7.00
2023-02-15T11:50:43.443Z,7.10
2023-02-15T11:53:28.683Z,7.10
2023-02-15T11:55:56.969Z,7.10
2023-02-15T11:58:48.765Z,7.10
2023-02-15T12:01:38.967Z,7.20
2023-02-15T12:04:21.657Z,7.20
2023-02-15T12:07:03.049Z,7.30
2023-02-15T12:09:53.991Z,7.30
2023-02-15T12:12:25.829Z,7.40
2023-02-15T12:15:08.155Z,7.40
2023-02-15T12:17:55.476Z,7.40
2023-02-15T12:20:32.935Z,7.40
2023-02-15T12:23:12.865Z,7.42
2023-02-15T12:25:54.576Z,7.50
2023-02-15T12:28:41.670Z,7.50
2023-02-15T12:31:21.814Z,7.50
2023-02-15T12:33:55.085Z,7.60
2023-02-15T12:36:30.022Z,7.60
2023-02-15T12:39:17.970Z,7.62
2023-02-15T12:41:57.505Z,7.70
2023-02-15T12:44:32.985Z,7.70
2023-02-15T12:47:08.225Z,7.70
2023-02-15T12:49:38.620Z,7.72
2023-02-15T12:52:27.039Z,7.72
2023-02-15T12:54:54.785Z,7.72
2023-02-15T12:57:30.437Z,7.78
2023-02-15T13:00:26.280Z,7.80
2023-02-15T13:02:57.880Z,7.80
2023-02-15T13:05:45.254Z,7.80
2023-02-15T13:08:21.601Z,7.80
2023-02-15T13:11:11.217Z,7.80
2023-02-15T13:14:02.684Z,7.90
2023-02-15T13:16:39.926Z,7.90
2023-02-15T13:19:22.305Z,8.00
2023-02-15T13:21:56.697Z,8.00
2023-02-15T13:24:32.092Z,8.10
2023-02-15T13:27:14.657Z,8.10
2023-02-15T13:29:52.372Z,8.10
2023-02-15T13:32:42.041Z,8.10
2023-02-15T13:35:18.488Z,8.10
2023-02-15T13:38:20.488Z,8.10
2023-02-15T13:40:57.261Z,8.10
2023-02-15T13:43:43.995Z,8.10
2023-02-15T13:47:00.886Z,8.10
2023-02-15T13:49:52.495Z,8.10
2023-02-15T13:52:25.347Z,8.10
2023-02-15T13:55:30.142Z,8.06
2023-02-15T13:58:11.342Z,8.00
2023-02-15T14:01:21.119Z,8.00
2023-02-15T14:04:34.452Z,7.90
2023-02-15T14:07:25.288Z,8.00
2023-02-15T14:11:00.077Z,8.00
2023-02-15T14:13:49.665Z,8.00
2023-02-15T14:17:05.830Z,8.08
2023-02-15T14:19:51.104Z,8.10
2023-02-15T14:22:43.646Z,8.10
2023-02-15T14:25:36.099Z,8.10
2023-02-15T14:28:23.147Z,8.02
2023-02-15T14:30:52.247Z,8.06
2023-02-15T14:33:41.006Z,8.02
2023-02-15T14:36:15.636Z,8.00
2023-02-15T14:39:45.601Z,8.00
2023-02-15T14:42:29.850Z,7.92
2023-02-15T14:45:22.570Z,7.90
2023-02-15T14:48:29.806Z,7.90
2023-02-15T14:50:58.644Z,7.90
2023-02-15T14:53:43.151Z,7.90
2023-02-15T14:56:19.294Z,7.90
2023-02-15T14:58:56.618Z,7.90
2023-02-15T15:01:33.234Z,7.90
2023-02-15T15:04:32.418Z,7.80
2023-02-15T15:07:25.970Z,7.80
2023-02-15T15:10:04.427Z,7.80
2023-02-15T15:12:36.804Z,7.74
2023-02-15T15:15:08.261Z,7.70
2023-02-15T15:17:38.967Z,7.60
2023-02-15T15:20:42.001Z,7.60
2023-02-15T15:23:15.879Z,7.60
2023-02-15T15:25:47.243Z,7.60
2023-02-15T15:28:34.238Z,7.50
2023-02-15T15:31:40.327Z,7.50
2023-02-15T15:34:24.743Z,7.44
2023-02-15T15:36:55.306Z,7.40
2023-02-15T15:40:06.170Z,7.40
2023-02-15T15:43:05.504Z,7.30
2023-02-15T15:46:10.739Z,7.20
2023-02-15T15:48:43.918Z,7.20
2023-02-15T15:51:20.240Z,7.16
2023-02-15T15:53:55.822Z,7.10
2023-02-15T15:56:32.660Z,7.10
2023-02-15T15:59:12.986Z,7.00
2023-02-15T16:01:49.315Z,6.94
2023-02-15T16:04:32.058Z,6.90
2023-02-15T16:07:17.413Z,6.90
2023-02-15T16:10:20.289Z,6.90
2023-02-15T16:12:50.780Z,6.90
2023-02-15T16:15:24.959Z,6.90
2023-02-15T16:17:59.633Z,6.90
2023-02-15T16:20:36.513Z,6.90
2023-02-15T16:23:35.851Z,6.80
2023-02-15T16:26:22.059Z,6.70
2023-02-15T16:28:54.968Z,6.70
2023-02-15T16:31:24.235Z,6.60
2023-02-15T16:33:56.661Z,6.50
2023-02-15T16:36:29.757Z,6.40
2023-02-15T16:38:57.389Z,6.30
2023-02-15T16:41:29.185Z,6.20
2023-02-15T16:44:13.901Z,6.12
2023-02-15T16:46:47.479Z,6.10
2023-02-15T16:49:21.914Z,6.00
2023-02-15T16:52:00.332Z,6.00
2023-02-15T16:54:32.322Z,5.94
2023-02-15T16:57:00.626Z,5.94
2023-02-15T16:59:49.399Z,5.98
2023-02-15T17:02:54.596Z,5.90
2023-02-15T17:05:21.740Z,5.90
2023-02-15T17:08:03.310Z,5.88
2023-02-15T17:10:37.582Z,5.80
2023-02-15T17:13:29.290Z,5.80
2023-02-15T17:16:03.322Z,5.80
2023-02-15T17:18:35.302Z,5.70
2023-02-15T17:21:14.582Z,5.70
2023-02-15T17:23:49.423Z,5.60
2023-02-15T17:26:22.059Z,5.56
2023-02-15T17:29:20.679Z,5.50
2023-02-15T17:31:52.426Z,5.40
2023-02-15T17:34:59.702Z,5.40
2023-02-15T17:37:36.840Z,5.40
2023-02-15T17:40:35.150Z,5.40
2023-02-15T17:43:03.380Z,5.40
2023-02-15T17:45:57.579Z,5.30
2023-02-15T17:48:37.267Z,5.30
2023-02-15T17:51:08.223Z,5.28
2023-02-15T17:53:35.903Z,5.20
2023-02-15T17:56:10.620Z,5.20
2023-02-15T17:58:39.875Z,5.10
2023-02-15T18:01:37.431Z,5.04
2023-02-15T18:04:29.805Z,5.00
2023-02-15T18:07:17.412Z,5.00
2023-02-15T18:10:03.871Z,4.90
2023-02-15T18:12:38.251Z,4.90
2023-02-15T18:15:10.892Z,4.90
2023-02-15T18:17:46.979Z,4.80
2023-02-15T18:20:19.384Z,4.80
2023-02-15T18:22:47.491Z,4.80
2023-02-15T18:25:18.862Z,4.70
2023-02-15T18:27:47.175Z,4.70
2023-02-15T18:30:19.284Z,4.60
2023-02-15T18:32:51.431Z,4.54
2023-02-15T18:35:23.605Z,4.50
2023-02-15T18:37:53.744Z,4.40
2023-02-15T18:40:25.808Z,4.40
2023-02-15T18:42:54.768Z,4.40
2023-02-15T18:45:32.831Z,4.36
2023-02-15T18:48:00.924Z,4.40
2023-02-15T18:50:34.421Z,4.30
2023-02-15T18:53:13.437Z,4.30
2023-02-15T18:55:41.249Z,4.30
2023-02-15T18:58:20.656Z,4.20
2023-02-15T19:00:50.009Z,4.20
2023-02-15T19:03:18.152Z,4.10
2023-02-15T19:05:47.624Z,4.10
2023-02-15T19:08:24.440Z,4.00
2023-02-15T19:10:52.274Z,3.90
2023-02-15T19:13:19.951Z,3.80
2023-02-15T19:15:47.761Z,3.80
2023-02-15T19:18:15.542Z,3.80
2023-02-15T19:20:46.966Z,3.80
2023-02-15T19:23:22.361Z,3.70
2023-02-15T19:25:53.396Z,3.78
2023-02-15T19:28:33.749Z,3.80
2023-02-15T19:31:01.804Z,3.80
2023-02-15T19:33:29.698Z,3.70
2023-02-15T19:35:57.903Z,3.70
2023-02-15T19:38:32.446Z,3.70
2023-02-15T19:41:08.934Z,3.70
2023-02-15T19:43:36.686Z,3.80
2023-02-15T19:46:05.078Z,3.80
2023-02-15T19:48:32.987Z,3.80
2023-02-15T19:51:00.761Z,3.80
2023-02-15T19:53:29.738Z,3.80
2023-02-15T19:55:57.506Z,3.80
2023-02-15T19:58:25.226Z,3.70
2023-02-15T20:00:52.950Z,3.70
2023-02-15T20:03:20.684Z,3.70
2023-02-15T20:05:48.352Z,3.70
2023-02-15T20:08:19.545Z,3.70
2023-02-15T20:10:47.594Z,3.68
2023-02-15T20:13:18.198Z,3.70
2023-02-15T20:15:47.043Z,3.70
2023-02-15T20:18:15.230Z,3.70
2023-02-15T20:20:50.679Z,3.70
2023-02-15T20:23:32.055Z,3.70
2023-02-15T20:26:12.601Z,3.70
2023-02-15T20:28:40.301Z,3.60
2023-02-15T20:31:15.647Z,3.60
2023-02-15T20:33:43.534Z,3.60
2023-02-15T20:36:17.666Z,3.60
2023-02-15T20:38:46.385Z,3.60
2023-02-15T20:41:36.261Z,3.60
2023-02-15T20:44:26.654Z,3.60
2023-02-15T20:46:58.051Z,3.60
2023-02-15T20:49:27.868Z,3.50
2023-02-15T20:51:57.320Z,3.50
2023-02-15T20:54:30.186Z,3.50
2023-02-15T20:56:59.246Z,3.40
2023-02-15T20:59:32.231Z,3.40
2023-02-15T21:02:19.366Z,3.34
2023-02-15T21:04:47.366Z,3.38
2023-02-15T21:07:18.174Z,3.30
2023-02-15T21:09:47.133Z,3.30
2023-02-15T21:12:18.690Z,3.30
2023-02-15T21:14:47.088Z,3.30
2023-02-15T21:17:17.244Z,3.28
2023-02-15T21:19:45.021Z,3.30
2023-02-15T21:22:15.872Z,3.20
2023-02-15T21:24:52.050Z,3.20
2023-02-15T21:27:19.860Z,3.20
2023-02-15T21:29:47.604Z,3.20
2023-02-15T21:32:15.495Z,3.30
2023-02-15T21:34:43.301Z,3.30
2023-02-15T21:37:32.812Z,3.30
2023-02-15T21:40:02.492Z,3.30
2023-02-15T21:42:49.115Z,3.30
2023-02-15T21:45:37.322Z,3.30
2023-02-15T21:48:05.193Z,3.28
2023-02-15T21:50:54.722Z,3.20
2023-02-15T21:53:35.213Z,3.20
2023-02-15T21:56:06.544Z,3.20
2023-02-15T21:58:36.985Z,3.30
2023-02-15T22:01:05.987Z,3.30
2023-02-15T22:03:37.396Z,3.30
2023-02-15T22:06:05.835Z,3.30
2023-02-15T22:08:34.302Z,3.28
2023-02-15T22:11:02.464Z,3.20
2023-02-15T22:13:33.950Z,3.20
2023-02-15T22:16:03.146Z,3.20
2023-02-15T22:18:34.384Z,3.14
2023-02-15T22:21:04.398Z,3.12
2023-02-15T22:23:32.553Z,3.20
2023-02-15T22:26:08.242Z,3.20
2023-02-15T22:28:39.959Z,3.20
2023-02-15T22:31:15.077Z,3.10
2023-02-15T22:33:44.827Z,3.10
2023-02-15T22:36:24.955Z,3.10
2023-02-15T22:38:54.544Z,3.04
2023-02-15T22:41:31.166Z,3.00
2023-02-15T22:44:00.067Z,3.00
2023-02-15T22:46:27.940Z,3.00
2023-02-15T22:48:55.758Z,3.00
2023-02-15T22:51:25.260Z,3.00
2023-02-15T22:53:53.849Z,3.00
2023-02-15T22:56:37.460Z,2.98
2023-02-15T22:59:13.966Z,2.90
2023-02-15T23:01:41.732Z,2.90
2023-02-15T23:04:21.372Z,2.90
2023-02-15T23:06:49.790Z,2.80
2023-02-15T23:09:17.537Z,2.80
2023-02-15T23:11:46.007Z,2.80
2023-02-15T23:14:32.891Z,2.80
2023-02-15T23:17:00.989Z,2.80
2023-02-15T23:19:29.032Z,2.80
2023-02-15T23:21:56.905Z,2.78
2023-02-15T23:24:29.993Z,2.74
2023-02-15T23:27:17.737Z,2.70
2023-02-15T23:29:46.637Z,2.70
2023-02-15T23:32:15.593Z,2.70
2023-02-15T23:34:43.683Z,2.70
2023-02-15T23:37:18.382Z,2.70
2023-02-15T23:40:04.827Z,2.70
2023-02-15T23:42:35.509Z,2.70
2023-02-15T23:45:21.637Z,2.70
2023-02-15T23:48:13.016Z,2.70
2023-02-15T23:50:40.763Z,2.64
2023-02-15T23:53:10.098Z,2.60
2023-02-15T23:55:42.582Z,2.62
2023-02-15T23:58:18.144Z,2.60
